createdAt,value
2019-02-21T00:01:37.069Z,70.61
2019-02-21T00:04:20.197Z,70.58
2019-02-21T00:07:11.169Z,70.83
2019-02-21T00:10:13.892Z,71.34
2019-02-21T00:13:04.832Z,70.95
2019-02-21T00:15:48.690Z,71.52
2019-02-21T00:18:39.805Z,71.70
2019-02-21T00:21:23.508Z,71.56
2019-02-21T00:24:14.432Z,71.76
2019-02-21T00:26:58.335Z,71.97
2019-02-21T00:29:49.244Z,71.58
2019-02-21T00:32:33.046Z,71.63
2019-02-21T00:35:23.936Z,71.60
2019-02-21T00:38:07.895Z,71.95
2019-02-21T00:40:58.857Z,72.07
2019-02-21T00:43:42.579Z,72.41
2019-02-21T00:46:33.616Z,72.21
2019-02-21T00:49:17.313Z,71.86
2019-02-21T00:52:08.215Z,71.61
2019-02-21T00:54:52.163Z,71.89
2019-02-21T00:57:43.770Z,72.30
2019-02-21T01:00:27.142Z,72.47
2019-02-21T01:03:18.060Z,72.50
2019-02-21T01:06:01.874Z,72.54
2019-02-21T01:08:52.798Z,72.35
2019-02-21T01:11:36.697Z,72.56
2019-02-21T01:14:27.625Z,72.69
2019-02-21T01:17:11.498Z,72.68
2019-02-21T01:19:55.725Z,72.15
2019-02-21T01:22:46.659Z,72.06
2019-02-21T01:25:29.860Z,72.17
2019-02-21T01:28:20.787Z,72.08
2019-02-21T01:31:04.384Z,72.41
2019-02-21T01:33:55.320Z,72.31
2019-02-21T01:36:38.999Z,72.27
2019-02-21T01:39:29.926Z,72.22
2019-02-21T01:42:13.995Z,72.51
2019-02-21T01:45:05.127Z,72.30
2019-02-21T01:47:49.835Z,72.08
2019-02-21T01:50:40.744Z,72.59
2019-02-21T01:53:24.160Z,72.95
2019-02-21T01:56:15.171Z,72.87
2019-02-21T01:58:58.717Z,73.14
2019-02-21T02:01:49.664Z,73.11
2019-02-21T02:04:33.236Z,73.19
2019-02-21T02:07:24.181Z,73.31
2019-02-21T02:10:07.956Z,73.13
2019-02-21T02:12:58.863Z,73.57
2019-02-21T02:15:42.687Z,73.79
2019-02-21T02:18:26.596Z,73.93
2019-02-21T02:21:19.129Z,74.03
2019-02-21T02:24:02.822Z,74.12
2019-02-21T02:26:53.816Z,74.26
2019-02-21T02:29:37.779Z,74.14
2019-02-21T02:32:28.670Z,74.27
2019-02-21T02:35:12.548Z,74.38
2019-02-21T02:38:05.339Z,74.13
2019-02-21T02:40:49.002Z,74.02
2019-02-21T02:43:39.963Z,74.47
2019-02-21T02:46:23.321Z,73.78
2019-02-21T02:49:14.232Z,74.14
2019-02-21T02:51:58.260Z,74.78
2019-02-21T02:54:49.184Z,74.33
2019-02-21T02:57:33.094Z,74.74
2019-02-21T03:00:23.999Z,75.22
2019-02-21T03:03:07.850Z,74.54
2019-02-21T03:05:58.775Z,74.66
2019-02-21T03:08:42.716Z,74.56
2019-02-21T03:11:33.599Z,75.11
2019-02-21T03:14:16.830Z,74.83
2019-02-21T03:17:07.754Z,74.55
2019-02-21T03:19:51.254Z,74.28
2019-02-21T03:22:42.155Z,74.46
2019-02-21T03:25:25.884Z,74.93
2019-02-21T03:28:09.866Z,75.04
2019-02-21T03:31:00.805Z,74.70
2019-02-21T03:33:44.607Z,74.46
2019-02-21T03:36:35.591Z,73.77
2019-02-21T03:39:19.579Z,73.59
2019-02-21T03:42:10.511Z,74.05
2019-02-21T03:44:54.179Z,74.05
2019-02-21T03:47:45.135Z,74.14
2019-02-21T03:50:29.059Z,73.99
2019-02-21T03:53:20.078Z,74.39
2019-02-21T03:56:03.850Z,74.49
2019-02-21T03:58:54.764Z,73.93
2019-02-21T04:01:38.382Z,74.18
2019-02-21T04:04:29.296Z,73.88
2019-02-21T04:07:13.170Z,73.83
2019-02-21T04:10:04.097Z,74.24
2019-02-21T04:12:47.325Z,74.02
2019-02-21T04:15:38.228Z,73.86
2019-02-21T04:18:21.721Z,74.21
2019-02-21T04:21:12.650Z,74.47
2019-02-21T04:23:56.713Z,74.44
2019-02-21T04:26:47.632Z,74.15
2019-02-21T04:29:33.853Z,74.21
2019-02-21T04:32:24.846Z,74.33
2019-02-21T04:35:08.481Z,74.59
2019-02-21T04:37:51.986Z,74.32
2019-02-21T04:40:42.927Z,74.38
2019-02-21T04:43:26.236Z,74.96
2019-02-21T04:46:17.035Z,75.16
2019-02-21T04:49:00.378Z,75.14
2019-02-21T04:51:51.332Z,75.12
2019-02-21T04:54:35.266Z,75.37
2019-02-21T04:57:26.197Z,75.35
2019-02-21T05:00:10.606Z,74.96
2019-02-21T05:03:01.547Z,75.49
2019-02-21T05:05:52.495Z,75.23
2019-02-21T05:08:36.288Z,75.38
2019-02-21T05:11:27.214Z,75.81
2019-02-21T05:14:11.281Z,75.71
2019-02-21T05:17:02.217Z,75.95
2019-02-21T05:19:45.848Z,76.16
2019-02-21T05:22:36.786Z,76.36
2019-02-21T05:25:20.118Z,76.28
2019-02-21T05:28:29.953Z,76.34
2019-02-21T05:31:32.799Z,76.52
2019-02-21T05:34:33.516Z,76.24
2019-02-21T05:37:36.415Z,76.59
2019-02-21T05:40:46.186Z,76.85
2019-02-21T05:43:48.789Z,76.92
2019-02-21T05:46:58.578Z,76.91
2019-02-21T05:49:50.023Z,76.87
2019-02-21T05:52:59.799Z,76.57
2019-02-21T05:55:49.376Z,76.09
2019-02-21T05:58:59.170Z,76.80
2019-02-21T06:02:02.054Z,76.67
2019-02-21T06:05:11.804Z,77.09
2019-02-21T06:08:13.961Z,77.39
2019-02-21T06:11:23.742Z,77.54
2019-02-21T06:14:25.778Z,77.21
2019-02-21T06:17:35.571Z,77.70
2019-02-21T06:20:38.177Z,78.26
2019-02-21T06:23:49.218Z,78.38
2019-02-21T06:26:57.911Z,78.18
2019-02-21T06:30:03.583Z,78.17
2019-02-21T06:33:04.607Z,78.15
2019-02-21T06:35:59.655Z,78.67
2019-02-21T06:38:50.643Z,78.61
2019-02-21T06:41:33.994Z,78.71
2019-02-21T06:44:25.955Z,78.81
2019-02-21T06:47:09.809Z,78.65
2019-02-21T06:50:00.752Z,78.82
2019-02-21T06:52:43.931Z,78.71
2019-02-21T06:55:34.859Z,79.00
2019-02-21T06:58:18.669Z,78.97
2019-02-21T07:01:10.212Z,78.73
2019-02-21T07:03:55.784Z,78.43
2019-02-21T07:06:46.756Z,78.50
2019-02-21T07:09:30.701Z,78.19
2019-02-21T07:12:21.740Z,77.93
2019-02-21T07:15:05.375Z,77.70
2019-02-21T07:17:56.293Z,77.38
2019-02-21T07:20:39.933Z,77.27
2019-02-21T07:23:40.687Z,76.89
2019-02-21T07:26:36.528Z,76.62
2019-02-21T07:29:20.560Z,74.93
2019-02-21T07:32:11.499Z,71.13
2019-02-21T07:34:55.257Z,65.33
2019-02-21T07:37:46.237Z,61.67
2019-02-21T07:40:29.459Z,60.37
2019-02-21T07:43:20.780Z,58.19
2019-02-21T07:46:24.963Z,55.76
2019-02-21T07:49:16.108Z,56.90
2019-02-21T07:52:00.294Z,59.68
2019-02-21T07:54:32.154Z,59.20
2019-02-21T07:57:23.059Z,57.80
2019-02-21T08:00:14.119Z,57.96
2019-02-21T08:02:57.259Z,57.07
2019-02-21T08:05:48.243Z,58.07
2019-02-21T08:08:32.563Z,56.94
2019-02-21T08:11:42.434Z,56.82
2019-02-21T08:14:25.734Z,56.10
2019-02-21T08:17:16.813Z,55.14
2019-02-21T08:20:08.386Z,54.79
2019-02-21T08:22:46.399Z,54.09
2019-02-21T08:25:37.391Z,57.14
2019-02-21T08:28:20.542Z,59.56
2019-02-21T08:31:11.486Z,60.98
2019-02-21T08:34:04.637Z,62.07
2019-02-21T08:36:55.535Z,62.86
2019-02-21T08:39:38.739Z,61.62
2019-02-21T08:42:29.816Z,63.50
2019-02-21T08:45:13.282Z,63.13
2019-02-21T08:48:04.287Z,62.57
2019-02-21T08:50:48.081Z,63.14
2019-02-21T08:53:39.127Z,64.08
2019-02-21T08:56:23.273Z,65.16
2019-02-21T09:02:18.107Z,66.31
2019-02-21T09:05:09.578Z,66.71
2019-02-21T09:07:53.460Z,65.98
2019-02-21T09:10:44.449Z,65.10
2019-02-21T09:13:27.885Z,65.65
2019-02-21T09:16:18.851Z,65.92
2019-02-21T09:19:02.676Z,66.85
2019-02-21T09:21:46.672Z,66.96
2019-02-21T09:24:41.995Z,67.40
2019-02-21T09:27:42.391Z,67.85
2019-02-21T09:30:25.704Z,68.17
2019-02-21T09:33:17.792Z,68.42
2019-02-21T09:36:20.989Z,68.27
2019-02-21T09:39:11.929Z,68.87
2019-02-21T09:41:55.737Z,68.57
2019-02-21T09:44:46.725Z,68.23
2019-02-21T09:47:31.207Z,67.08
2019-02-21T09:50:22.154Z,65.09
2019-02-21T09:53:05.437Z,64.81
2019-02-21T09:56:16.892Z,62.50
2019-02-21T09:59:00.279Z,62.69
2019-02-21T10:01:52.751Z,63.83
2019-02-21T10:04:36.333Z,64.78
2019-02-21T10:07:27.286Z,64.95
2019-02-21T10:10:12.622Z,65.15
2019-02-21T10:13:03.571Z,64.08
2019-02-21T10:15:47.230Z,64.60
2019-02-21T10:18:38.229Z,64.28
2019-02-21T10:21:21.738Z,63.95
2019-02-21T10:24:04.869Z,64.96
2019-02-21T10:26:55.906Z,64.63
2019-02-21T10:29:39.753Z,65.25
2019-02-21T10:32:30.704Z,65.71
2019-02-21T10:35:14.784Z,65.60
2019-02-21T10:41:15.794Z,63.92
2019-02-21T10:44:06.763Z,62.01
2019-02-21T10:46:50.227Z,60.31
2019-02-21T10:49:41.152Z,56.76
2019-02-21T10:52:32.091Z,53.27
2019-02-21T10:55:17.827Z,50.24
2019-02-21T10:58:08.825Z,48.89
2019-02-21T11:00:52.088Z,46.93
2019-02-21T11:03:43.023Z,46.92
2019-02-21T11:06:26.197Z,47.59
2019-02-21T11:09:36.620Z,48.59
2019-02-21T11:12:20.011Z,49.04
2019-02-21T11:15:12.854Z,49.30
2019-02-21T11:17:57.882Z,48.89
2019-02-21T11:20:50.092Z,47.95
2019-02-21T11:23:33.928Z,48.83
2019-02-21T11:26:18.746Z,51.44
2019-02-21T11:29:09.718Z,52.31
2019-02-21T11:32:00.653Z,51.17
2019-02-21T11:34:44.707Z,50.61
2019-02-21T11:37:43.219Z,51.72
2019-02-21T11:40:39.735Z,50.25
2019-02-21T11:43:30.683Z,47.95
2019-02-21T11:46:14.065Z,48.35
2019-02-21T11:52:34.214Z,47.89
2019-02-21T11:55:25.225Z,47.40
2019-02-21T11:58:09.110Z,48.34
2019-02-21T12:01:02.478Z,49.15
2019-02-21T12:03:46.333Z,49.41
2019-02-21T12:06:38.193Z,50.06
2019-02-21T12:09:22.122Z,49.09
2019-02-21T12:12:24.328Z,50.54
2019-02-21T12:15:15.242Z,50.29
2019-02-21T12:17:58.495Z,50.07
2019-02-21T12:20:42.471Z,49.19
2019-02-21T12:23:33.430Z,49.19
2019-02-21T12:26:24.360Z,48.84
2019-02-21T12:29:08.278Z,49.00
2019-02-21T12:31:59.244Z,49.02
2019-02-21T12:34:42.874Z,49.16
2019-02-21T12:37:33.857Z,49.60
2019-02-21T12:40:17.820Z,50.24
2019-02-21T12:43:08.814Z,50.28
2019-02-21T12:45:55.064Z,50.24
2019-02-21T12:48:46.049Z,50.28
2019-02-21T12:51:29.669Z,50.62
2019-02-21T12:54:20.680Z,50.26
2019-02-21T12:57:04.616Z,50.75
2019-02-21T12:59:55.590Z,51.28
2019-02-21T13:02:39.659Z,52.00
2019-02-21T13:05:40.361Z,49.71
2019-02-21T13:08:35.342Z,49.48
2019-02-21T13:11:26.284Z,48.86
2019-02-21T13:14:09.909Z,48.22
2019-02-21T13:17:00.859Z,47.20
2019-02-21T13:19:44.843Z,46.86
2019-02-21T13:22:36.291Z,46.58
2019-02-21T13:25:20.037Z,47.00
2019-02-21T13:28:10.986Z,47.67
2019-02-21T13:30:54.854Z,47.50
2019-02-21T13:33:45.869Z,48.14
2019-02-21T13:36:36.856Z,47.78
2019-02-21T13:39:09.879Z,48.25
2019-02-21T13:41:53.855Z,48.08
2019-02-21T13:44:44.793Z,48.41
2019-02-21T13:47:28.701Z,48.48
2019-02-21T13:50:19.725Z,48.57
2019-02-21T13:53:04.107Z,48.14
2019-02-21T13:55:55.082Z,48.39
2019-02-21T13:58:38.593Z,48.79
2019-02-21T14:01:29.558Z,48.62
2019-02-21T14:04:13.401Z,49.20
2019-02-21T14:07:04.465Z,49.51
2019-02-21T14:10:07.203Z,49.64
2019-02-21T14:12:58.176Z,49.90
2019-02-21T14:15:41.933Z,50.11
2019-02-21T14:18:32.921Z,50.35
2019-02-21T14:21:16.833Z,48.91
2019-02-21T14:24:00.541Z,47.78
2019-02-21T14:26:51.507Z,47.77
2019-02-21T14:29:54.317Z,48.46
2019-02-21T14:32:45.277Z,49.84
2019-02-21T14:35:29.090Z,49.93
2019-02-21T14:38:28.088Z,50.70
2019-02-21T14:41:24.475Z,51.29
2019-02-21T14:44:15.474Z,51.87
2019-02-21T14:46:59.125Z,52.29
2019-02-21T14:49:50.115Z,53.78
2019-02-21T14:52:33.222Z,53.73
2019-02-21T14:55:24.175Z,53.96
2019-02-21T14:58:07.766Z,54.25
2019-02-21T15:00:58.704Z,54.07
2019-02-21T15:03:49.651Z,53.80
2019-02-21T15:06:33.185Z,53.95
2019-02-21T15:09:24.134Z,54.09
2019-02-21T15:12:15.969Z,54.24
2019-02-21T15:14:59.930Z,54.46
2019-02-21T15:17:50.843Z,54.41
2019-02-21T15:20:54.132Z,54.83
2019-02-21T15:23:45.154Z,55.30
2019-02-21T15:26:29.311Z,55.54
2019-02-21T15:29:20.248Z,55.16
2019-02-21T15:32:11.189Z,55.57
2019-02-21T15:34:56.834Z,55.18
2019-02-21T15:37:40.293Z,54.74
2019-02-21T15:43:58.051Z,55.08
2019-02-21T15:46:49.001Z,55.19
2019-02-21T15:49:32.309Z,55.73
2019-02-21T15:52:23.264Z,56.06
2019-02-21T15:55:12.281Z,56.42
2019-02-21T15:58:04.080Z,56.83
2019-02-21T16:01:04.540Z,57.18
2019-02-21T16:03:55.484Z,57.76
2019-02-21T16:06:50.751Z,58.13
2019-02-21T16:09:31.981Z,58.29
2019-02-21T16:12:16.474Z,58.62
2019-02-21T16:15:09.142Z,58.92
2019-02-21T16:17:52.494Z,59.31
2019-02-21T16:20:43.448Z,59.50
2019-02-21T16:23:46.145Z,60.04
2019-02-21T16:26:37.085Z,60.19
2019-02-21T16:29:20.905Z,60.14
2019-02-21T16:32:11.848Z,60.72
2019-02-21T16:34:55.932Z,60.73
2019-02-21T16:37:46.932Z,61.05
2019-02-21T16:40:30.952Z,60.86
2019-02-21T16:43:21.904Z,60.92
2019-02-21T16:46:25.125Z,61.42
2019-02-21T16:49:16.132Z,61.33
2019-02-21T16:52:07.071Z,61.55
2019-02-21T16:54:58.049Z,61.71
2019-02-21T16:57:42.001Z,61.74
2019-02-21T17:00:42.380Z,62.01
2019-02-21T17:03:37.564Z,61.99
2019-02-21T17:06:28.488Z,62.16
2019-02-21T17:09:12.001Z,62.26
2019-02-21T17:12:02.966Z,62.22
2019-02-21T17:14:46.326Z,62.22
2019-02-21T17:17:37.237Z,62.62
2019-02-21T17:20:20.423Z,63.05
2019-02-21T17:23:22.230Z,63.33
2019-02-21T17:26:15.731Z,63.62
2019-02-21T17:29:06.700Z,64.12
2019-02-21T17:31:50.510Z,64.41
2019-02-21T17:34:41.420Z,64.66
2019-02-21T17:37:25.484Z,64.69
2019-02-21T17:40:18.305Z,65.09
2019-02-21T17:43:01.556Z,65.20
2019-02-21T17:45:52.481Z,65.64
2019-02-21T17:48:36.437Z,65.94
2019-02-21T17:51:27.342Z,65.91
2019-02-21T17:54:11.228Z,65.98
2019-02-21T17:57:02.196Z,66.08
2019-02-21T17:59:45.785Z,66.04
2019-02-21T18:02:36.737Z,66.09
2019-02-21T18:05:20.022Z,65.94
2019-02-21T18:08:10.958Z,65.83
2019-02-21T18:10:54.351Z,66.17
2019-02-21T18:13:45.336Z,66.46
2019-02-21T18:16:29.386Z,66.18
2019-02-21T18:19:20.326Z,66.06
2019-02-21T18:22:04.192Z,66.18
2019-02-21T18:24:55.159Z,66.28
2019-02-21T18:27:38.962Z,66.19
2019-02-21T18:30:29.948Z,66.03
2019-02-21T18:33:13.558Z,66.50
2019-02-21T18:36:04.521Z,67.01
2019-02-21T18:38:48.460Z,67.23
2019-02-21T18:41:39.429Z,67.67
2019-02-21T18:44:22.514Z,68.10
2019-02-21T18:47:13.440Z,68.41
2019-02-21T18:49:57.203Z,68.67
2019-02-21T18:52:48.155Z,69.08
2019-02-21T18:55:31.489Z,69.53
2019-02-21T18:58:22.440Z,70.08
2019-02-21T19:01:05.552Z,70.87
2019-02-21T19:03:56.488Z,72.40
2019-02-21T19:06:40.262Z,73.82
2019-02-21T19:09:31.267Z,74.64
2019-02-21T19:12:14.876Z,75.69
2019-02-21T19:15:06.224Z,76.83
2019-02-21T19:18:09.028Z,78.10
2019-02-21T19:21:00.135Z,79.44
2019-02-21T19:23:44.214Z,79.84
2019-02-21T19:26:35.194Z,80.32
2019-02-21T19:29:18.876Z,81.10
2019-02-21T19:32:09.836Z,81.20
2019-02-21T19:34:53.393Z,81.08
2019-02-21T19:40:52.793Z,81.16
2019-02-21T19:43:43.706Z,81.10
2019-02-21T19:46:34.600Z,81.06
2019-02-21T19:49:37.637Z,81.23
2019-02-21T19:52:28.570Z,81.59
2019-02-21T19:55:13.206Z,81.87
2019-02-21T19:58:04.155Z,82.34
2019-02-21T20:00:48.015Z,83.00
2019-02-21T20:03:39.086Z,83.53
2019-02-21T20:06:22.363Z,83.79
2019-02-21T20:13:03.753Z,84.74
2019-02-21T20:15:54.707Z,84.63
2019-02-21T20:18:45.708Z,84.67
2019-02-21T20:21:29.433Z,84.47
2019-02-21T20:24:20.395Z,84.21
2019-02-21T20:27:04.047Z,84.15
2019-02-21T20:29:54.974Z,84.43
2019-02-21T20:32:57.748Z,84.54
2019-02-21T20:35:50.333Z,84.62
2019-02-21T20:38:33.889Z,84.47
2019-02-21T20:41:24.827Z,84.38
2019-02-21T20:44:08.705Z,83.96
2019-02-21T20:46:59.659Z,84.04
2019-02-21T20:49:42.762Z,84.45
2019-02-21T20:52:33.747Z,85.17
2019-02-21T20:55:17.407Z,85.37
2019-02-21T20:58:08.385Z,85.79
2019-02-21T21:00:52.248Z,86.37
2019-02-21T21:03:43.267Z,86.64
2019-02-21T21:06:26.956Z,87.00
2019-02-21T21:09:17.865Z,87.38
2019-02-21T21:12:01.805Z,87.81
2019-02-21T21:14:52.750Z,88.28
2019-02-21T21:17:36.173Z,88.76
2019-02-21T21:20:27.122Z,89.17
2019-02-21T21:22:58.934Z,89.79
2019-02-21T21:25:49.871Z,90.24
2019-02-21T21:29:00.154Z,90.61
2019-02-21T21:31:43.865Z,90.99
2019-02-21T21:34:34.812Z,91.24
2019-02-21T21:37:18.906Z,91.53
2019-02-21T21:40:13.535Z,91.78
2019-02-21T21:42:57.662Z,92.06
2019-02-21T21:45:48.612Z,92.37
2019-02-21T21:48:32.454Z,92.63
2019-02-21T21:51:23.420Z,92.83
2019-02-21T21:54:07.270Z,93.09
2019-02-21T21:56:58.186Z,93.15
2019-02-21T22:00:00.715Z,93.28
2019-02-21T22:02:51.657Z,93.34
2019-02-21T22:05:35.006Z,93.46
2019-02-21T22:08:25.939Z,93.67
2019-02-21T22:11:09.775Z,93.78
2019-02-21T22:14:00.710Z,93.98
2019-02-21T22:16:44.668Z,94.13
2019-02-21T22:19:35.574Z,94.29
2019-02-21T22:22:18.953Z,94.32
2019-02-21T22:25:10.701Z,94.34
2019-02-21T22:27:54.621Z,94.47
2019-02-21T22:30:45.584Z,94.76
2019-02-21T22:33:29.364Z,94.99
2019-02-21T22:36:20.309Z,95.33
2019-02-21T22:39:15.500Z,95.49
2019-02-21T22:41:57.074Z,95.48
2019-02-21T22:44:40.547Z,95.43
2019-02-21T22:47:31.455Z,95.40
2019-02-21T22:50:14.982Z,95.40
2019-02-21T22:53:05.974Z,95.55
2019-02-21T22:55:49.079Z,95.72
2019-02-21T22:58:45.035Z,95.84
2019-02-21T23:01:46.187Z,95.98
2019-02-21T23:04:55.127Z,95.89
2019-02-21T23:08:17.022Z,96.05
2019-02-21T23:11:00.737Z,96.05
2019-02-21T23:13:51.946Z,95.91
2019-02-21T23:16:35.722Z,95.87
2019-02-21T23:22:29.382Z,96.36
2019-02-21T23:25:20.317Z,96.34
2019-02-21T23:28:04.372Z,96.31
2019-02-21T23:30:55.321Z,96.39
2019-02-21T23:33:43.880Z,96.45
2019-02-21T23:36:34.825Z,96.30
2019-02-21T23:39:18.588Z,96.14
2019-02-21T23:42:09.548Z,96.04
2019-02-21T23:45:12.657Z,96.02
2019-02-21T23:48:03.595Z,95.94
2019-02-21T23:50:47.187Z,95.81
2019-02-21T23:53:38.147Z,95.70
2019-02-21T23:56:22.011Z,95.63
2019-02-21T23:59:12.918Z,95.52
